Time;durP1;ratioP1;P1;durP2;ratioP2;P2;SDS_P1;SDS_P2;PMS_P1;PMS_P2;Temp;Humidity;BMP_temperature;BMP_pressure;BME280_temperature;BME280_humidity;BME280_pressure;Samples;Min_cycle;Max_cycle;Signal;HPM_P1;HPM_P2
2023/05/06 00:01:10;;;;;;;109.75;62.72;;;;;;;7.59;92.37;97913.16;10369212;28;20037;-52
2023/05/06 00:06:09;;;;;;;103.10;59.40;;;;;;;7.60;92.15;97901.13;10368355;28;20041;-51
2023/05/06 00:11:08;;;;;;;92.60;48.63;;;;;;;7.60;91.83;97903.69;10368220;28;20021;-51
2023/05/06 00:16:07;;;;;;;74.82;40.15;;;;;;;7.60;92.01;97898.53;10367914;28;20032;-52
2023/05/06 00:21:06;;;;;;;59.10;32.80;;;;;;;7.60;91.84;97903.69;10368084;28;20064;-52
2023/05/06 00:26:05;;;;;;;58.22;33.45;;;;;;;7.56;91.56;97901.91;10367542;28;20029;-52
2023/05/06 00:31:04;;;;;;;60.92;31.48;;;;;;;7.49;92.10;97902.69;10367366;28;20107;-52
2023/05/06 00:36:03;;;;;;;;;;;;;;;7.49;91.52;97906.13;10367458;28;20067;-51
2023/05/06 00:41:02;;;;;;;48.50;24.98;;;;;;;7.39;92.32;97914.56;10367018;28;19912;-50
2023/05/06 00:46:01;;;;;;;38.67;20.35;;;;;;;7.26;92.14;97903.19;10365851;28;20100;-51
2023/05/06 00:51:00;;;;;;;30.50;17.20;;;;;;;7.25;92.07;97917.81;10362893;28;20094;-52
2023/05/06 00:55:59;;;;;;;33.40;20.13;;;;;;;7.22;91.61;97912.63;10363424;28;20119;-52
2023/05/06 01:00:58;;;;;;;40.67;20.88;;;;;;;6.93;91.88;97885.50;10363251;28;20057;-51
2023/05/06 01:06:13;;;;;;;49.88;22.42;;;;;;;7.10;92.11;97911.53;10362711;28;20051;-52
2023/05/06 01:11:15;;;;;;;40.65;21.73;;;;;;;7.06;92.20;97905.50;10362035;28;20123;-51
2023/05/06 01:16:18;;;;;;;40.60;20.98;;;;;;;6.25;92.80;97783.84;10362378;28;20559;-51
2023/05/06 01:21:18;;;;;;;39.00;21.20;;;;;;;7.06;92.88;97910.66;10361867;28;20522;-51
2023/05/06 01:26:17;;;;;;;41.53;20.38;;;;;;;7.02;92.88;97901.97;10361701;28;20129;-52
2023/05/06 01:31:25;;;;;;;31.23;16.98;;;;;;;6.74;94.83;97904.97;10361762;28;20029;-51
2023/05/06 01:36:37;;;;;;;33.35;16.88;;;;;;;6.72;94.25;97902.34;10361467;28;20100;-52
2023/05/06 01:41:40;;;;;;;38.45;18.70;;;;;;;6.71;94.24;97902.34;10361580;28;20128;-53
2023/05/06 01:46:39;;;;;;;35.30;17.25;;;;;;;6.71;94.84;97910.94;10361347;28;20124;-52
2023/05/06 01:51:38;;;;;;;52.40;19.77;;;;;;;6.85;94.51;97905.16;10361442;28;21077;-52
2023/05/06 01:56:37;;;;;;;144.77;27.20;;;;;;;6.76;93.73;97864.59;10360591;28;20735;-51
2023/05/06 02:01:36;;;;;;;80.45;24.17;;;;;;;6.97;94.12;97892.44;10359749;28;20213;-52
2023/05/06 02:06:35;;;;;;;53.50;20.75;;;;;;;7.11;94.44;97892.66;10360162;28;20506;-52
2023/05/06 02:11:34;;;;;;;41.55;20.20;;;;;;;7.17;94.47;97893.63;10359862;28;20453;-52
2023/05/06 02:16:33;;;;;;;42.95;22.58;;;;;;;6.88;94.24;97845.88;10359799;28;20021;-52
2023/05/06 02:21:32;;;;;;;43.72;22.20;;;;;;;7.25;95.00;97894.56;10360074;28;20149;-52
2023/05/06 02:26:31;;;;;;;44.78;23.27;;;;;;;7.25;94.28;97904.03;10359691;28;20035;-52
2023/05/06 02:31:30;;;;;;;52.00;23.45;;;;;;;7.44;94.11;97892.28;10359643;28;20411;-51
2023/05/06 02:36:29;;;;;;;38.15;20.73;;;;;;;7.58;94.02;97880.44;10359257;28;20487;-52
2023/05/06 02:41:28;;;;;;;38.20;22.33;;;;;;;7.71;93.79;97888.31;10360151;28;20414;-52
2023/05/06 02:46:27;;;;;;;36.40;20.95;;;;;;;7.77;93.60;97899.59;10359160;28;20124;-52
2023/05/06 02:51:26;;;;;;;35.53;22.35;;;;;;;7.81;93.38;97903.97;10360327;28;20041;-52
2023/05/06 02:56:25;;;;;;;48.28;26.42;;;;;;;7.83;93.13;97907.44;10358895;28;20485;-52
2023/05/06 03:01:24;;;;;;;42.92;25.38;;;;;;;7.71;93.16;97878.00;10358908;28;20064;-52
2023/05/06 03:06:23;;;;;;;46.33;26.25;;;;;;;7.87;93.68;97890.25;10359447;28;20153;-52
2023/05/06 03:11:22;;;;;;;53.40;28.20;;;;;;;8.09;93.38;97906.88;10358582;28;20446;-52
2023/05/06 03:16:21;;;;;;;33.22;21.00;;;;;;;8.18;92.86;97913.88;10362004;28;20606;-51
2023/05/06 03:21:20;;;;;;;25.42;16.70;;;;;;;8.15;93.02;97924.16;10366993;28;20594;-51
2023/05/06 03:26:20;;;;;;;25.70;16.35;;;;;;;8.25;92.52;97916.53;10366773;28;20554;-52
2023/05/06 03:31:19;;;;;;;29.52;17.88;;;;;;;8.35;92.01;97920.09;10365480;28;20570;-52
2023/05/06 03:36:18;;;;;;;24.60;16.80;;;;;;;8.38;91.45;97921.84;10366538;28;20056;-51
2023/05/06 03:41:17;;;;;;;38.65;21.02;;;;;;;8.33;90.85;97926.94;10366323;28;20033;-51
2023/05/06 03:46:16;;;;;;;51.53;30.42;;;;;;;8.36;91.37;97929.56;10367342;28;20037;-52
2023/05/06 03:51:15;;;;;;;46.85;29.08;;;;;;;7.98;91.17;97870.56;10369010;28;20586;-52
2023/05/06 03:56:16;;;;;;;;;;;;;;;8.40;90.98;97936.50;10369528;28;20065;-52
2023/05/06 04:01:17;;;;;;;51.72;29.55;;;;;;;8.13;90.66;97875.06;10367668;28;19951;-52
2023/05/06 04:06:15;;;;;;;55.05;35.60;;;;;;;8.58;90.29;97941.00;10367928;28;20471;-52
2023/05/06 04:11:14;;;;;;;52.28;32.17;;;;;;;8.73;90.15;97948.03;10367784;28;20521;-52
2023/05/06 04:16:13;;;;;;;51.40;33.63;;;;;;;8.76;89.86;97955.81;10368511;28;20048;-52
2023/05/06 04:21:12;;;;;;;43.63;27.90;;;;;;;8.81;89.43;97959.34;10367835;28;20481;-52
2023/05/06 04:26:11;;;;;;;43.65;26.73;;;;;;;8.87;89.13;97956.78;10366964;28;20048;-52
2023/05/06 04:31:10;;;;;;;43.05;27.08;;;;;;;8.98;89.69;97967.25;10367235;28;20037;-52
2023/05/06 04:36:10;;;;;;;41.78;25.73;;;;;;;9.16;89.12;97963.97;10367790;28;20061;-52
2023/05/06 04:41:09;;;;;;;39.42;24.88;;;;;;;9.42;88.46;97965.88;10365369;28;20075;-53
2023/05/06 04:46:09;;;;;;;42.33;25.95;;;;;;;9.42;87.26;97950.34;10365376;28;20060;-52
2023/05/06 04:51:08;;;;;;;43.50;27.83;;;;;;;9.48;87.27;97963.34;10362382;28;20084;-53
2023/05/06 04:56:07;;;;;;;52.17;37.45;;;;;;;9.31;86.89;97950.28;10363561;28;20124;-52
2023/05/06 05:01:07;;;;;;;;;;;;;;;9.43;87.18;97978.00;10363758;28;20131;-52
2023/05/06 05:06:06;;;;;;;68.78;46.67;;;;;;;9.42;87.61;97974.53;10362878;28;20011;-52
2023/05/06 05:11:05;;;;;;;;;;;;;;;9.54;87.73;97973.75;10363013;28;20494;-52
2023/05/06 05:16:04;;;;;;;34.92;25.60;;;;;;;9.50;87.76;97948.69;10362222;28;20394;-52
2023/05/06 05:21:03;;;;;;;33.50;22.98;;;;;;;9.70;87.90;97990.25;10361679;28;20106;-52
2023/05/06 05:26:02;;;;;;;35.30;24.13;;;;;;;9.78;88.15;97986.84;10362973;28;20124;-52
2023/05/06 05:31:02;;;;;;;36.33;25.65;;;;;;;9.91;87.11;97982.63;10362841;28;20048;-52
2023/05/06 05:36:03;;;;;;;32.63;23.00;;;;;;;10.03;87.41;97983.50;10362337;28;20129;-52
2023/05/06 05:41:02;;;;;;;35.45;24.58;;;;;;;10.11;86.94;97990.47;10362126;28;20052;-52
2023/05/06 05:46:01;;;;;;;;;;;;;;;10.09;86.10;97989.59;10362093;28;20068;-52
2023/05/06 05:51:01;;;;;;;34.53;24.75;;;;;;;10.19;86.66;97996.59;10361947;28;20026;-52
2023/05/06 05:56:00;;;;;;;31.17;22.30;;;;;;;10.29;86.34;97996.63;10362325;28;20123;-52
2023/05/06 06:00:59;;;;;;;32.88;22.35;;;;;;;10.41;86.43;97996.66;10360514;28;20418;-52
2023/05/06 06:05:59;;;;;;;36.05;25.98;;;;;;;10.59;86.55;97996.72;10353419;28;20132;-52
2023/05/06 06:10:58;;;;;;;;;;;;;;;10.63;85.69;97989.78;10360849;28;20128;-52
2023/05/06 06:15:57;;;;;;;37.30;24.55;;;;;;;10.77;84.83;97997.63;10360730;28;19920;-53
2023/05/06 06:20:55;;;;;;;;;;;;;;;10.56;85.52;98006.22;10359227;28;20123;-52
2023/05/06 06:25:54;;;;;;;43.20;30.58;;;;;;;10.55;85.27;98004.50;10358691;28;19923;-52
2023/05/06 06:30:53;;;;;;;37.47;25.50;;;;;;;10.37;85.57;98003.56;10358154;28;20857;-51
2023/05/06 06:35:52;;;;;;;33.38;25.42;;;;;;;10.50;84.83;98007.06;10358906;28;20043;-52
2023/05/06 06:40:51;;;;;;;37.00;23.88;;;;;;;10.68;85.89;97998.44;10358353;28;20032;-52
2023/05/06 06:45:50;;;;;;;30.73;22.52;;;;;;;11.10;84.35;97999.41;10359083;28;20463;-52
2023/05/06 06:50:49;;;;;;;;;;;;;;;11.25;83.06;98008.97;10362291;28;20479;-53
2023/05/06 06:55:48;;;;;;;27.13;19.67;;;;;;;11.40;83.00;97998.56;10362995;28;19913;-53
2023/05/06 07:00:47;;;;;;;;;;;;;;;11.69;82.13;98010.69;10360702;28;20052;-52
2023/05/06 07:05:46;;;;;;;28.20;17.55;;;;;;;12.04;81.19;98008.00;10355469;28;19927;-53
2023/05/06 07:10:44;;;;;;;28.33;20.05;;;;;;;12.45;79.23;98004.41;10361033;28;20396;-53
2023/05/06 07:15:43;;;;;;;;;;;;;;;12.78;78.66;98001.66;10363273;28;20029;-54
2023/05/06 07:20:42;;;;;;;28.20;19.10;;;;;;;13.19;77.55;98003.09;10363172;28;19965;-54
2023/05/06 07:25:41;;;;;;;;;;;;;;;13.44;74.50;98002.03;10363394;28;20392;-53
2023/05/06 07:30:40;;;;;;;26.60;18.30;;;;;;;13.27;74.94;98016.94;10361232;28;19920;-53
2023/05/06 07:35:39;;;;;;;24.65;16.25;;;;;;;13.39;74.40;98003.81;10354498;28;20061;-53
2023/05/06 07:40:38;;;;;;;;;;;;;;;13.78;73.64;98004.38;10360129;28;20131;-53
2023/05/06 07:45:37;;;;;;;26.02;19.35;;;;;;;14.22;73.17;98005.66;10360898;28;19928;-53
2023/05/06 07:50:36;;;;;;;;;;;;;;;14.46;71.66;98006.25;10357522;28;20056;-54
2023/05/06 07:55:36;;;;;;;26.55;17.13;;;;;;;14.59;71.14;98011.28;10358100;28;19913;-53
2023/05/06 08:00:35;;;;;;;20.55;15.80;;;;;;;14.89;69.25;98009.16;10358699;28;20073;-53
2023/05/06 08:05:34;;;;;;;21.98;13.30;;;;;;;15.27;68.96;98012.09;10365447;28;20036;-53
2023/05/06 08:10:33;;;;;;;16.98;13.38;;;;;;;15.57;67.09;97998.50;10365568;28;20495;-53
2023/05/06 08:15:32;;;;;;;21.30;14.27;;;;;;;15.59;68.22;98001.94;10365809;28;20048;-53
2023/05/06 08:20:31;;;;;;;16.60;11.88;;;;;;;15.85;66.16;97992.81;10362990;28;20040;-54
2023/05/06 08:25:30;;;;;;;13.63;10.70;;;;;;;15.85;65.76;97992.81;10365096;28;20047;-54
2023/05/06 08:30:29;;;;;;;;;;;;;;;16.20;64.62;97986.06;10365266;28;20413;-53
2023/05/06 08:35:28;;;;;;;13.33;9.47;;;;;;;16.23;61.79;97988.59;10361557;28;19963;-53
2023/05/06 08:40:31;;;;;;;16.10;11.05;;;;;;;17.00;63.92;97993.09;10355832;28;20124;-54
2023/05/06 08:45:31;;;;;;;15.00;10.40;;;;;;;17.40;61.42;97983.41;10366611;28;20124;-53
2023/05/06 08:50:31;;;;;;;11.88;10.07;;;;;;;17.72;61.08;97986.06;10356970;28;20139;-54
2023/05/06 08:55:32;;;;;;;11.45;8.50;;;;;;;18.14;58.14;97990.25;10362006;28;20060;-54
2023/05/06 09:00:32;;;;;;;11.13;8.73;;;;;;;18.15;56.77;97976.22;10362061;28;20128;-54
2023/05/06 09:05:31;;;;;;;14.25;8.82;;;;;;;18.13;57.53;97944.75;10363188;28;20152;-54
2023/05/06 09:10:32;;;;;;;10.55;8.68;;;;;;;18.38;56.34;97972.94;10361750;28;20119;-53
2023/05/06 09:15:41;;;;;;;12.45;8.75;;;;;;;18.22;56.16;97971.66;10362577;28;20064;-54
2023/05/06 09:20:43;;;;;;;12.18;8.65;;;;;;;18.65;56.49;97960.75;10362730;28;20084;-53
2023/05/06 09:25:44;;;;;;;10.73;7.53;;;;;;;19.26;55.28;97957.16;10362598;28;20096;-54
2023/05/06 09:30:46;;;;;;;10.25;7.18;;;;;;;19.07;52.81;97952.47;10362899;28;20156;-54
2023/05/06 09:35:45;;;;;;;10.55;7.80;;;;;;;19.27;52.17;97949.19;10357530;28;20132;-54
2023/05/06 09:40:44;;;;;;;10.05;7.03;;;;;;;19.02;51.28;97947.34;10360520;28;20072;-54
2023/05/06 09:45:45;;;;;;;10.95;6.30;;;;;;;19.48;51.44;97931.81;10362959;28;20052;-54
2023/05/06 09:50:44;;;;;;;12.48;7.60;;;;;;;19.68;49.63;97917.16;10364780;28;20076;-54
2023/05/06 09:55:44;;;;;;;10.70;6.45;;;;;;;20.09;49.02;97915.66;10363773;28;20072;-54
2023/05/06 10:00:44;;;;;;;11.80;7.53;;;;;;;20.68;48.09;97917.84;10363307;28;20083;-54
2023/05/06 10:05:44;;;;;;;11.35;6.88;;;;;;;21.03;46.05;97917.31;10363251;28;20470;-54
2023/05/06 10:10:46;;;;;;;10.73;7.38;;;;;;;20.52;46.38;97911.44;10364173;28;20560;-54
2023/05/06 10:15:46;;;;;;;12.27;7.65;;;;;;;20.04;48.27;97920.22;10366887;28;20526;-55
2023/05/06 10:20:48;;;;;;;10.75;7.10;;;;;;;20.16;48.09;97890.78;10364956;28;20528;-54
2023/05/06 10:25:52;;;;;;;14.65;9.40;;;;;;;20.79;46.50;97900.72;10363156;28;20073;-54
2023/05/06 10:30:52;;;;;;;9.40;7.20;;;;;;;20.52;45.92;97834.09;10364658;28;20076;-54
2023/05/06 10:36:10;;;;;;;9.70;7.80;;;;;;;21.19;44.82;97896.44;10363297;28;20072;-54
2023/05/06 10:41:09;;;;;;;9.52;6.28;;;;;;;21.39;45.16;97893.88;10363342;28;20056;-54
2023/05/06 10:46:14;;;;;;;9.70;7.40;;;;;;;21.75;46.53;97885.28;10362399;28;20064;-54
2023/05/06 10:51:20;;;;;;;10.93;7.20;;;;;;;21.38;43.99;97894.78;10361507;28;20522;-54
2023/05/06 10:56:18;;;;;;;8.57;6.50;;;;;;;20.40;45.80;97827.53;10360185;28;20116;-54
2023/05/06 11:01:25;;;;;;;9.38;6.38;;;;;;;20.40;47.67;97904.88;10360428;28;20025;-54
2023/05/06 11:06:51;;;;;;;9.63;5.95;;;;;;;20.37;48.28;97893.53;10359735;28;20115;-54
2023/05/06 11:12:02;;;;;;;9.63;5.93;;;;;;;20.56;46.96;97902.47;10357857;28;20140;-54
2023/05/06 11:17:03;;;;;;;7.45;5.90;;;;;;;20.69;45.75;97898.44;10359220;28;20071;-54
2023/05/06 11:22:04;;;;;;;6.93;5.40;;;;;;;20.52;45.66;97892.09;10360104;28;20060;-54
2023/05/06 11:27:04;;;;;;;7.07;4.93;;;;;;;20.66;45.33;97851.09;10359512;28;20069;-54
2023/05/06 11:32:20;;;;;;;10.00;5.75;;;;;;;20.83;44.90;97883.84;10358975;28;20493;-54
2023/05/06 11:37:27;;;;;;;7.15;5.30;;;;;;;19.95;45.52;97881.06;10362404;28;20061;-55
2023/05/06 11:42:27;;;;;;;8.48;5.53;;;;;;;19.79;46.19;97886.91;10367042;28;20124;-54
2023/05/06 11:47:26;;;;;;;9.00;6.05;;;;;;;19.67;46.54;97879.41;10366326;28;20124;-54
2023/05/06 11:52:25;;;;;;;8.73;5.00;;;;;;;19.83;46.24;97885.00;10367854;28;20048;-54
2023/05/06 11:57:24;;;;;;;10.48;4.72;;;;;;;20.11;46.66;97876.94;10369397;28;20017;-54
2023/05/06 12:02:23;;;;;;;8.40;5.57;;;;;;;20.20;45.77;97879.22;10369131;28;20477;-54
2023/05/06 12:07:22;;;;;;;8.60;5.15;;;;;;;19.69;44.44;97882.84;10364813;28;20418;-54
2023/05/06 12:12:23;;;;;;;7.43;5.38;;;;;;;19.62;45.25;97881.34;10365025;28;20068;-54
2023/05/06 12:17:22;;;;;;;9.43;5.35;;;;;;;19.95;44.89;97875.78;10363088;28;20112;-54
2023/05/06 12:22:23;;;;;;;7.28;5.15;;;;;;;20.36;43.87;97868.09;10364495;28;20060;-55
2023/05/06 12:27:28;;;;;;;8.05;4.90;;;;;;;20.60;42.66;97866.31;10364199;28;20132;-54
2023/05/06 12:32:27;;;;;;;5.60;4.68;;;;;;;20.90;41.21;97865.06;10364228;28;20129;-54
2023/05/06 12:37:27;;;;;;;7.70;4.90;;;;;;;21.14;40.92;97859.69;10364688;28;20094;-54
2023/05/06 12:42:26;;;;;;;6.28;4.53;;;;;;;21.11;40.48;97858.06;10363726;28;20601;-54
2023/05/06 12:47:25;;;;;;;6.25;4.32;;;;;;;21.32;40.06;97802.66;10360864;28;20534;-55
2023/05/06 12:52:27;;;;;;;5.85;4.47;;;;;;;21.84;39.49;97837.31;10358335;28;20549;-54
2023/05/06 12:57:26;;;;;;;6.15;4.47;;;;;;;22.06;39.88;97831.06;10364314;28;20060;-55
2023/05/06 13:02:25;;;;;;;9.85;5.75;;;;;;;21.69;40.08;97830.09;10363269;28;20072;-54
2023/05/06 13:07:24;;;;;;;7.97;5.35;;;;;;;21.19;40.87;97844.53;10363293;28;20048;-55
2023/05/06 13:12:23;;;;;;;7.63;5.30;;;;;;;20.96;40.94;97848.16;10362430;28;20036;-55
2023/05/06 13:17:22;;;;;;;9.32;5.75;;;;;;;20.82;41.77;97845.19;10362368;28;20202;-55
2023/05/06 13:22:21;;;;;;;5.55;4.47;;;;;;;20.97;41.16;97839.31;10363010;28;20052;-54
2023/05/06 13:27:20;;;;;;;6.78;5.13;;;;;;;20.94;40.76;97834.16;10364218;28;20084;-54
2023/05/06 13:32:19;;;;;;;8.82;4.63;;;;;;;21.28;40.53;97832.75;10362787;28;20836;-54
2023/05/06 13:37:18;;;;;;;6.32;4.72;;;;;;;21.51;40.04;97823.84;10362087;28;20441;-54
2023/05/06 13:42:17;;;;;;;5.85;4.20;;;;;;;21.30;39.79;97810.66;10364693;28;20025;-55
2023/05/06 13:47:16;;;;;;;6.30;4.80;;;;;;;21.25;39.42;97827.63;10362168;28;20055;-55
2023/05/06 13:52:15;;;;;;;7.43;4.35;;;;;;;20.88;40.05;97834.41;10361466;28;20032;-55
2023/05/06 13:57:14;;;;;;;6.90;4.47;;;;;;;20.51;40.65;97827.97;10362009;28;20508;-55
2023/05/06 14:02:13;;;;;;;7.78;4.55;;;;;;;20.55;41.41;97824.31;10360245;28;20079;-55
2023/05/06 14:07:12;;;;;;;5.82;4.97;;;;;;;20.57;41.65;97827.75;10359829;28;20121;-55
2023/05/06 14:12:11;;;;;;;8.35;4.75;;;;;;;20.53;40.82;97818.25;10360783;28;20025;-55
2023/05/06 14:17:10;;;;;;;7.60;5.38;;;;;;;20.66;40.25;97824.75;10363473;28;20116;-55
2023/05/06 14:22:09;;;;;;;6.70;4.22;;;;;;;20.76;40.03;97829.66;10361682;28;20577;-55
2023/05/06 14:27:08;;;;;;;8.55;4.32;;;;;;;20.80;41.06;97826.81;10355906;28;20409;-55
2023/05/06 14:32:07;;;;;;;6.97;4.40;;;;;;;21.02;40.67;97821.50;10360032;28;20496;-55
2023/05/06 14:37:06;;;;;;;6.20;4.28;;;;;;;21.02;40.35;97821.50;10360057;28;20501;-55
2023/05/06 14:42:05;;;;;;;7.07;4.47;;;;;;;21.26;40.28;97818.75;10360873;28;20116;-55
2023/05/06 14:47:04;;;;;;;6.82;4.20;;;;;;;21.22;39.64;97810.13;10362591;28;20036;-55
2023/05/06 14:52:03;;;;;;;9.48;5.20;;;;;;;21.32;40.16;97818.50;10363244;28;20919;-55
2023/05/06 14:57:02;;;;;;;6.82;4.53;;;;;;;21.54;40.03;97810.50;10363548;28;20111;-55
2023/05/06 15:02:02;;;;;;;6.68;4.50;;;;;;;21.38;39.62;97773.34;10360376;28;20028;-55
2023/05/06 15:07:02;;;;;;;6.18;4.40;;;;;;;21.45;39.33;97811.78;10366490;28;20072;-55
2023/05/06 15:12:01;;;;;;;7.50;4.72;;;;;;;21.11;40.41;97809.69;10364212;28;20267;-55
2023/05/06 15:17:00;;;;;;;6.50;4.90;;;;;;;20.90;41.67;97807.03;10370084;28;20037;-54
2023/05/06 15:21:59;;;;;;;8.15;5.07;;;;;;;20.79;42.45;97811.03;10369191;28;20035;-54
2023/05/06 15:26:58;;;;;;;7.10;4.43;;;;;;;20.85;41.09;97802.88;10367974;28;20086;-54
2023/05/06 15:31:57;;;;;;;6.63;4.57;;;;;;;20.65;41.12;97785.25;10365475;28;20059;-54
2023/05/06 15:36:59;;;;;;;7.78;4.20;;;;;;;20.90;41.35;97800.91;10365372;28;20103;-54
2023/05/06 15:41:58;;;;;;;7.55;4.88;;;;;;;20.83;41.70;97804.72;10363264;28;20128;-54
2023/05/06 15:46:57;;;;;;;7.85;4.78;;;;;;;20.36;43.79;97810.97;10364794;28;20068;-55
2023/05/06 15:51:56;;;;;;;8.15;5.57;;;;;;;19.86;44.95;97816.41;10363873;28;20104;-54
2023/05/06 15:56:56;;;;;;;8.13;5.18;;;;;;;19.66;46.27;97811.88;10366872;28;20055;-55
2023/05/06 16:01:55;;;;;;;7.53;4.90;;;;;;;19.64;45.75;97798.78;10365272;28;20656;-54
2023/05/06 16:06:55;;;;;;;9.82;5.65;;;;;;;19.74;44.37;97796.66;10366186;28;20515;-55
2023/05/06 16:11:54;;;;;;;8.10;5.70;;;;;;;19.68;44.35;97799.53;10367614;28;20061;-54
2023/05/06 16:16:52;;;;;;;8.15;5.68;;;;;;;19.68;43.75;97806.56;10365318;28;20067;-55
2023/05/06 16:21:52;;;;;;;9.50;6.07;;;;;;;19.79;44.33;97800.00;10363486;28;20345;-54
2023/05/06 16:26:51;;;;;;;9.40;5.50;;;;;;;19.81;43.42;97795.53;10365029;28;20124;-54
2023/05/06 16:31:50;;;;;;;9.35;5.75;;;;;;;19.64;44.04;97798.78;10364214;28;20131;-55
2023/05/06 16:36:49;;;;;;;8.60;5.50;;;;;;;19.53;44.73;97800.03;10364212;28;20033;-54
2023/05/06 16:41:48;;;;;;;7.30;5.50;;;;;;;19.28;45.82;97798.31;10363734;28;20133;-54
2023/05/06 16:46:47;;;;;;;8.40;5.45;;;;;;;19.16;46.55;97806.63;10365867;28;20029;-53
2023/05/06 16:51:46;;;;;;;9.63;5.82;;;;;;;18.92;47.21;97814.44;10361106;28;20044;-53
2023/05/06 16:56:45;;;;;;;10.80;7.18;;;;;;;18.81;47.74;97819.22;10362211;28;20215;-53
2023/05/06 17:01:44;;;;;;;11.02;6.55;;;;;;;18.83;48.56;97817.41;10361691;28;20060;-53
2023/05/06 17:06:43;;;;;;;8.38;5.72;;;;;;;18.88;48.83;97825.09;10363101;28;20051;-53
2023/05/06 17:11:42;;;;;;;8.00;5.65;;;;;;;18.80;49.63;97833.25;10347932;28;20486;-53
2023/05/06 17:16:44;;;;;;;11.35;6.35;;;;;;;18.48;50.44;97836.88;10362213;28;20395;-53
2023/05/06 17:21:43;;;;;;;10.23;6.20;;;;;;;18.32;50.59;97833.88;10359634;28;20096;-53
2023/05/06 17:26:42;;;;;;;9.55;6.47;;;;;;;17.92;51.34;97793.09;10362841;28;20036;-53
2023/05/06 17:31:41;;;;;;;12.35;7.70;;;;;;;17.94;51.27;97841.13;10362687;28;20136;-53
2023/05/06 17:36:40;;;;;;;9.13;7.53;;;;;;;17.81;51.54;97842.41;10362668;28;20405;-53
2023/05/06 17:41:39;;;;;;;13.25;7.75;;;;;;;17.66;51.98;97848.91;10361218;28;20037;-53
2023/05/06 17:46:38;;;;;;;9.65;6.85;;;;;;;17.53;53.78;97862.38;10354346;28;20171;-53
2023/05/06 17:51:37;;;;;;;12.30;8.38;;;;;;;17.13;54.32;97826.72;10361176;28;20102;-53
2023/05/06 17:56:36;;;;;;;17.98;10.40;;;;;;;17.19;54.86;97867.66;10360655;28;20128;-53
2023/05/06 18:01:35;;;;;;;23.88;12.48;;;;;;;17.08;55.34;97877.56;10361072;28;20068;-53
2023/05/06 18:06:34;;;;;;;22.38;11.90;;;;;;;16.97;56.49;97869.94;10361369;28;20123;-53
2023/05/06 18:11:33;;;;;;;20.05;11.55;;;;;;;16.84;57.32;97881.63;10361731;28;20073;-54
2023/05/06 18:16:32;;;;;;;22.33;13.85;;;;;;;16.61;58.54;97874.31;10361679;28;20060;-53
2023/05/06 18:21:33;;;;;;;20.13;14.93;;;;;;;16.44;59.90;97882.53;10359534;28;20031;-52
2023/05/06 18:26:34;;;;;;;17.33;11.02;;;;;;;15.53;60.40;97785.00;10360015;28;20077;-52
2023/05/06 18:31:33;;;;;;;15.25;10.15;;;;;;;15.94;61.02;97893.19;10360811;28;20131;-53
2023/05/06 18:36:33;;;;;;;18.50;9.60;;;;;;;15.76;62.13;97898.75;10360617;28;20175;-53
2023/05/06 18:41:32;;;;;;;13.60;7.90;;;;;;;15.57;63.19;97904.34;10360083;28;20076;-52
2023/05/06 18:46:32;;;;;;;11.63;7.80;;;;;;;15.09;63.47;97849.44;10359812;28;20036;-52
2023/05/06 18:51:31;;;;;;;13.45;9.65;;;;;;;15.32;64.77;97909.16;10361960;28;20060;-52
2023/05/06 18:56:30;;;;;;;16.75;13.40;;;;;;;15.15;65.10;97924.25;10359437;28;20077;-53
2023/05/06 19:01:29;;;;;;;14.52;12.43;;;;;;;14.94;65.71;97920.25;10359150;28;20343;-53
2023/05/06 19:06:30;;;;;;;;;;;;;;;14.77;66.70;97931.81;10359960;28;20115;-52
2023/05/06 19:11:29;;;;;;;15.40;10.48;;;;;;;14.60;66.23;97923.34;10358553;28;20003;-52
2023/05/06 19:16:28;;;;;;;;;;;;;;;14.47;66.63;97932.22;10360377;28;20065;-52
2023/05/06 19:21:27;;;;;;;13.50;9.60;;;;;;;14.28;67.29;97931.63;10359016;28;19920;-53
2023/05/06 19:26:26;;;;;;;;;;;;;;;14.10;68.31;97933.59;10361431;28;20079;-52
2023/05/06 19:31:25;;;;;;;14.80;9.97;;;;;;;13.94;68.42;97938.13;10360040;28;19959;-52
2023/05/06 19:36:24;;;;;;;14.20;9.70;;;;;;;13.64;70.04;97941.91;10356482;28;20349;-53
2023/05/06 19:41:23;;;;;;;;;;;;;;;13.55;70.64;97935.03;10359742;28;20040;-52
2023/05/06 19:46:21;;;;;;;17.15;12.90;;;;;;;13.43;71.49;97940.34;10360661;28;19921;-53
2023/05/06 19:51:20;;;;;;;17.10;12.57;;;;;;;13.26;72.34;97943.13;10361153;28;20451;-53
2023/05/06 19:56:19;;;;;;;;;;;;;;;13.04;73.55;97939.81;10362540;28;20568;-51
2023/05/06 20:01:21;;;;;;;17.67;12.38;;;;;;;12.87;73.70;97916.50;10370072;28;20228;-51
2023/05/06 20:06:20;;;;;;;13.85;10.55;;;;;;;11.99;73.93;97780.00;10369547;28;20053;-54
2023/05/06 20:11:19;;;;;;;;;;;;;;;12.86;74.47;97939.94;10368754;28;20039;-52
2023/05/06 20:16:17;;;;;;;13.98;11.30;;;;;;;12.81;74.29;97947.78;10367842;28;19940;-52
2023/05/06 20:21:16;;;;;;;;;;;;;;;12.76;74.81;97946.09;10368163;28;20044;-52
2023/05/06 20:26:15;;;;;;;29.50;15.38;;;;;;;12.65;75.75;97946.16;10368881;28;20456;-52
2023/05/06 20:31:14;;;;;;;;;;;;;;;12.48;76.70;97948.88;10368624;28;20583;-52
2023/05/06 20:36:13;;;;;;;17.20;11.18;;;;;;;12.41;76.81;97945.44;10367755;28;20401;-52
2023/05/06 20:41:11;;;;;;;;;;;;;;;12.35;77.27;97955.91;10367217;28;20427;-51
2023/05/06 20:46:10;;;;;;;16.38;11.50;;;;;;;12.30;77.50;97958.50;10366546;28;20038;-51
2023/05/06 20:51:09;;;;;;;15.85;12.27;;;;;;;11.55;77.66;97833.09;10363583;28;20045;-51
2023/05/06 20:56:23;;;;;;;22.77;15.88;;;;;;;12.18;77.85;97961.16;10364554;28;20844;-51
2023/05/06 21:01:24;;;;;;;22.40;16.27;;;;;;;12.07;78.63;97955.13;10364669;28;20455;-51
2023/05/06 21:06:23;;;;;;;38.78;24.98;;;;;;;11.98;79.33;97966.41;10363191;28;20567;-52
2023/05/06 21:11:21;;;;;;;;;;;;;;;11.96;78.96;97962.09;10364539;28;20487;-51
2023/05/06 21:16:20;;;;;;;24.00;15.98;;;;;;;11.91;78.99;97963.84;10362004;28;20017;-53
2023/05/06 21:21:21;;;;;;;;;;;;;;;11.86;79.83;97956.06;10364083;28;20076;-51
2023/05/06 21:26:21;;;;;;;22.00;13.43;;;;;;;11.84;79.99;97952.59;10363121;28;19955;-52
2023/05/06 21:31:21;;;;;;;22.00;16.25;;;;;;;11.61;81.15;97956.09;10362807;28;20172;-51
2023/05/06 21:36:20;;;;;;;19.17;13.25;;;;;;;11.56;82.17;97959.59;10363019;28;20585;-54
2023/05/06 21:41:19;;;;;;;15.10;11.65;;;;;;;11.51;83.21;97959.59;10360785;28;20533;-52
2023/05/06 21:46:18;;;;;;;;;;;;;;;11.42;83.29;97970.84;10364823;28;20056;-51
2023/05/06 21:51:17;;;;;;;17.10;11.90;;;;;;;11.32;84.42;97966.53;10366054;28;19978;-51
2023/05/06 21:56:17;;;;;;;15.15;11.15;;;;;;;11.22;84.06;97967.38;10365085;28;20115;-51
2023/05/06 22:01:16;;;;;;;15.52;10.32;;;;;;;11.10;84.58;97964.81;10366880;28;20460;-52
2023/05/06 22:06:15;;;;;;;;;;;;;;;11.13;83.46;97967.41;10365553;28;20099;-52
2023/05/06 22:11:14;;;;;;;16.60;11.68;;;;;;;10.88;83.87;97925.00;10362930;28;19916;-51
2023/05/06 22:16:13;;;;;;;15.70;12.32;;;;;;;10.94;83.92;97957.03;10360962;28;20211;-51
2023/05/06 22:21:12;;;;;;;22.02;15.90;;;;;;;10.84;84.66;97963.00;10360013;28;20454;-51
2023/05/06 22:26:11;;;;;;;25.45;16.15;;;;;;;10.73;86.14;97959.53;10361623;28;20067;-52
2023/05/06 22:31:11;;;;;;;24.13;16.70;;;;;;;10.68;86.57;97958.66;10363186;28;20032;-51
2023/05/06 22:36:10;;;;;;;25.90;18.38;;;;;;;10.61;86.68;97957.78;10364692;28;20061;-51
2023/05/06 22:41:09;;;;;;;26.58;19.15;;;;;;;10.48;86.21;97946.53;10364242;28;20060;-51
2023/05/06 22:46:08;;;;;;;24.58;18.83;;;;;;;10.48;86.41;97938.75;10363726;28;20091;-50
2023/05/06 22:51:08;;;;;;;30.35;20.13;;;;;;;10.45;86.71;97936.16;10361273;28;20055;-51
2023/05/06 22:56:07;;;;;;;29.27;19.33;;;;;;;10.40;86.78;97951.69;10361164;28;20536;-52
2023/05/06 23:01:07;;;;;;;24.02;17.98;;;;;;;10.29;87.63;97947.34;10360453;28;20088;-51
2023/05/06 23:06:06;;;;;;;21.35;17.33;;;;;;;10.22;87.92;97948.19;10361392;28;20069;-51
2023/05/06 23:11:05;;;;;;;24.65;17.05;;;;;;;10.22;87.55;97948.19;10360678;28;20041;-51